Latest Weather Observations for Dalby

IDQ60801

Issued at 7:52 pm EST Sunday 29 March 2020 (issued every 10 minutes, with the page automatically refreshed every 10 minutes)

About weather observations | Map of weather stations | Latest weather observations for QLD | Other Formats
Station Details ID: 041522 Name: DALBY AIRPORT Lat: -27.16 Lon: 151.26 Height: 343.9 m
Data from the previous 72 hours. | See also: Recent months at Dalby
Date/Time
EST
Temp
°C
App
Temp
°C
Dew
Point
°C
Rel
Hum
%
Delta-T
°C
Wind Press
QNH
hPa
Press
MSL
hPa
Rain since
9am
mm
Dir  Spd
km/h
Gust
km/h
Spd
kts
Gust
kts
29/07:30pm 23.2 21.0 12.2 50 6.3 ENE 15 17 8 9 1017.4 1015.7 0.0
29/07:00pm 24.3 21.6 12.9 49 6.7 ENE 19 20 10 11 1016.9 1015.2 0.0
29/06:30pm 24.9 22.7 12.2 45 7.4 E 15 19 8 10 1016.6 1014.8 0.0
29/06:00pm 26.2 22.7 12.3 42 8.1 E 22 26 12 14 1016.4 1014.6 0.0
29/05:30pm 27.2 23.9 11.7 38 9.0 E 20 26 11 14 1016.1 1014.3 0.0
29/05:00pm 28.0 25.6 10.2 33 10.1 ENE 13 17 7 9 1015.7 1013.9 0.0
29/04:30pm 28.1 25.7 9.9 32 10.3 ENE 13 17 7 9 1015.6 1013.8 0.0
29/04:00pm 28.6 26.0 9.3 30 10.9 E 13 20 7 11 1015.6 1013.8 0.0
29/03:30pm 29.3 26.9 9.9 30 11.1 ESE 13 20 7 11 1015.7 1013.9 0.0
29/03:00pm 30.0 27.1 11.0 31 11.1 E 17 26 9 14 1015.8 1014.0 0.0
29/02:30pm 29.3 25.9 10.4 31 10.9 SE 19 30 10 16 1016.0 1014.2 0.0
29/02:00pm 28.5 26.3 12.0 36 9.7 SE 15 24 8 13 1016.1 1014.3 0.0
29/01:30pm 28.0 25.2 11.5 35 9.6 E 17 24 9 13 1016.6 1014.8 0.0
29/01:00pm 28.5 27.0 12.0 36 9.7 E 11 20 6 11 1017.3 1015.6 0.0
29/12:30pm 28.1 26.8 12.5 38 9.2 ESE 11 24 6 13 1018.0 1016.2 0.0
29/12:00pm 27.5 25.6 13.1 41 8.6 SE 15 24 8 13 1018.4 1016.6 0.0
29/11:30am 27.1 26.1 13.4 42 8.2 N 11 20 6 11 1018.9 1017.1 0.0
29/11:00am 27.1 25.2 14.1 44 7.8 ENE 17 30 9 16 1019.2 1017.4 0.0
29/10:30am 25.9 23.4 14.1 48 7.1 ENE 20 32 11 17 1019.6 1017.9 0.0
29/10:00am 25.1 22.5 14.9 53 6.2 E 22 30 12 16 1019.7 1018.0 0.0
29/09:30am 24.6 22.0 15.0 55 5.8 ENE 22 32 12 17 1019.7 1018.0 0.0
29/09:00am 23.9 22.2 16.2 62 4.7 E 20 28 11 15 1019.9 1018.2 0.0
29/08:30am 22.8 21.0 16.1 66 4.1 E 20 28 11 15 1020.0 1018.3 0.0
29/08:00am 21.0 19.2 15.5 71 3.3 ESE 19 24 10 13 1019.7 1018.0 0.0
29/07:30am 19.3 18.5 15.2 77 2.4 SE 13 17 7 9 1019.4 1017.6 0.0
29/07:00am 17.9 17.2 15.3 85 1.5 SE 13 17 7 9 1019.1 1017.3 0.0
29/06:30am 16.5 15.0 14.3 87 1.3 SE 15 17 8 9 1019.0 1017.2 0.0
29/06:00am 16.9 15.9 14.7 87 1.3 SE 13 17 7 9 1018.6 1016.8 0.0
29/05:30am 16.9 16.3 14.7 87 1.3 SE 11 13 6 7 1018.1 1016.3 0.0
29/05:00am 17.0 16.0 14.6 86 1.4 E 13 17 7 9 1017.6 1015.9 0.0
29/04:30am 17.0 15.3 14.6 86 1.4 E 17 19 9 10 1017.2 1015.5 0.0
29/04:00am 17.2 15.2 15.0 87 1.3 E 19 24 10 13 1017.4 1015.7 0.0
29/03:30am 16.4 14.6 14.4 88 1.2 E 17 19 9 10 1017.4 1015.7 0.0
29/03:00am 15.7 14.3 13.5 87 1.3 E 13 17 7 9 1017.7 1016.0 0.0
29/02:30am 15.4 14.3 13.1 86 1.3 ESE 11 11 6 6 1018.0 1016.2 0.0
29/02:00am 16.2 15.3 13.7 85 1.4 ESE 11 13 6 7 1018.4 1016.6 0.0
29/01:30am 16.7 16.0 14.2 85 1.4 ESE 11 15 6 8 1018.7 1016.9 0.0
29/01:00am 17.4 16.1 14.7 84 1.6 E 15 19 8 10 1018.9 1017.1 0.0
29/12:30am 16.5 15.5 13.4 82 1.8 E 11 15 6 8 1018.8 1017.0 0.0
29/12:00am 17.2 17.0 13.7 80 2.0 E 7 9 4 5 1019.0 1017.2 0.0
 
Date/Time
EST
Temp
°C
App
Temp
°C
Dew
Point
°C
Rel
Hum
%
Delta-T
°C
Wind Press
QNH
hPa
Press
MSL
hPa
Rain since
9am
mm
Dir  Spd
km/h
Gust
km/h
Spd
kts
Gust
kts
28/11:30pm 17.9 17.2 14.2 79 2.2 E 11 13 6 7 1019.1 1017.3 0.0
28/11:00pm 18.6 18.0 14.5 77 2.4 E 11 13 6 7 1019.5 1017.8 0.0
28/10:30pm 19.6 18.4 15.0 75 2.7 ENE 15 20 8 11 1019.5 1017.8 0.0
28/10:00pm 20.2 18.7 15.2 73 3.0 E 17 20 9 11 1019.6 1017.9 0.0
28/09:30pm 20.4 19.0 14.5 69 3.5 E 15 20 8 11 1019.5 1017.8 0.0
28/09:00pm 21.1 19.8 14.7 67 3.8 E 15 20 8 11 1019.4 1017.6 0.0
28/08:30pm 22.0 18.7 15.1 65 4.2 ENE 26 32 14 17 1019.1 1017.3 0.0
28/08:00pm 22.6 19.7 15.0 62 4.6 ENE 24 32 13 17 1018.7 1016.9 0.0
28/07:30pm 23.1 19.7 13.8 55 5.5 ENE 24 30 13 16 1018.4 1016.6 0.0
28/07:00pm 23.0 20.4 13.2 54 5.7 E 19 22 10 12 1018.2 1016.4 0.0
28/06:30pm 23.6 21.7 12.9 51 6.3 E 15 20 8 11 1017.7 1016.0 0.0
28/06:00pm 24.7 21.9 12.6 47 7.1 E 19 22 10 12 1017.5 1015.8 0.0
28/05:30pm 25.6 22.8 13.1 46 7.4 E 20 24 11 13 1017.6 1015.9 0.0
28/05:00pm 25.9 22.1 12.4 43 7.9 E 24 30 13 16 1017.2 1015.5 0.0
28/04:30pm 25.9 22.5 12.4 43 7.9 ENE 22 30 12 16 1016.7 1014.9 0.0
28/04:00pm 26.4 23.8 12.1 41 8.3 ENE 17 26 9 14 1016.8 1015.0 0.0
28/03:30pm 26.7 23.5 12.0 40 8.6 ENE 20 26 11 14 1016.9 1015.2 0.0
28/03:00pm 26.9 23.0 12.2 40 8.6 NE 24 32 13 17 1016.8 1015.0 0.0
28/02:30pm 28.1 24.4 12.8 38 9.1 ENE 24 35 13 19 1016.9 1015.2 0.0
28/02:00pm 27.3 24.3 12.5 40 8.7 ENE 20 32 11 17 1017.2 1015.5 0.0
28/01:30pm 27.3 24.4 12.9 41 8.6 ENE 20 32 11 17 1017.6 1015.9 0.0
28/01:00pm 28.2 25.2 12.5 37 9.3 ENE 20 35 11 19 1018.2 1016.4 0.0
28/12:30pm 27.6 24.4 12.0 38 9.1 E 20 48 11 26 1018.7 1016.9 0.0
28/12:00pm 28.0 25.2 14.3 43 8.3 ENE 22 32 12 17 1019.3 1017.5 0.0
28/11:30am 26.6 23.4 13.0 43 8.1 ESE 22 32 12 17 1019.7 1018.0 0.0
28/11:00am 26.5 21.8 13.3 44 7.8 E 30 39 16 21 1020.0 1018.3 0.0
28/10:30am 26.3 22.2 12.7 43 8.0 E 26 37 14 20 1020.4 1018.7 0.0
28/10:00am 24.9 22.2 13.5 49 6.8 ESE 20 30 11 16 1020.7 1019.0 0.0
28/09:30am 23.8 20.0 13.6 52 6.0 E 26 35 14 19 1020.8 1019.1 0.0
28/09:00am 22.3 19.5 13.1 56 5.3 ESE 20 28 11 15 1021.1 1019.3 0.0
28/08:30am 20.9 17.2 12.6 59 4.8 ESE 24 32 13 17 1021.1 1019.3 0.0
28/08:00am 19.5 16.3 12.0 62 4.2 SE 20 28 11 15 1020.7 1019.0 0.0
28/07:30am 18.0 15.5 11.1 64 3.8 SE 15 20 8 11 1020.6 1018.9 0.0
28/07:00am 16.3 13.8 11.0 71 2.9 SSE 15 20 8 11 1020.5 1018.8 0.0
28/06:30am 15.2 13.4 11.0 76 2.3 SSE 11 15 6 8 1020.4 1018.7 0.0
28/06:00am 14.2 12.1 11.0 81 1.7 SE 13 15 7 8 1020.2 1018.5 0.0
28/05:30am 14.1 12.6 10.7 80 1.8 SE 9 11 5 6 1020.1 1018.4 0.0
28/05:00am 14.2 12.7 10.4 78 2.0 SE 9 13 5 7 1019.8 1018.1 0.0
28/04:30am 14.8 13.1 11.2 79 2.0 SE 11 15 6 8 1019.7 1018.0 0.0
28/04:00am 14.7 12.5 10.9 78 2.0 SE 13 15 7 8 1019.7 1018.0 0.0
28/03:30am 15.1 13.5 11.7 80 1.9 SE 11 13 6 7 1019.7 1018.0 0.0
28/03:00am 14.2 12.3 10.6 79 1.9 ESE 11 11 6 6 1019.7 1018.0 0.0
28/02:30am 14.3 12.7 10.3 77 2.1 ESE 9 11 5 6 1019.9 1018.2 0.0
28/02:00am 14.6 12.7 10.4 76 2.2 ESE 11 13 6 7 1020.0 1018.3 0.0
28/01:30am 15.3 13.6 11.1 76 2.3 SE 11 13 6 7 1020.4 1018.7 0.0
28/01:00am 15.5 14.4 10.7 73 2.6 ESE 7 9 4 5 1020.6 1018.9 0.0
28/12:30am 15.6 14.2 11.0 74 2.5 ESE 9 11 5 6 1020.7 1019.0 0.0
28/12:00am 15.9 14.5 10.9 72 2.7 ESE 9 9 5 5 1020.8 1019.1 0.0
 
Date/Time
EST
Temp
°C
App
Temp
°C
Dew
Point
°C
Rel
Hum
%
Delta-T
°C
Wind Press
QNH
hPa
Press
MSL
hPa
Rain since
9am
mm
Dir  Spd
km/h
Gust
km/h
Spd
kts
Gust
kts
27/11:30pm 16.4 14.7 11.3 72 2.8 ESE 11 13 6 7 1020.8 1019.1 0.0
27/11:00pm 16.9 15.5 12.2 74 2.6 ESE 11 13 6 7 1021.1 1019.3 0.0
27/10:30pm 17.8 16.6 12.7 72 2.9 E 11 15 6 8 1021.2 1019.4 0.0
27/10:00pm 18.7 17.1 12.9 69 3.3 E 13 17 7 9 1021.3 1019.5 0.0
27/09:30pm 19.0 17.5 13.0 68 3.4 E 13 17 7 9 1021.3 1019.5 0.0
27/09:00pm 19.7 17.1 13.2 66 3.7 E 19 22 10 12 1021.2 1019.4 0.0
27/08:30pm 20.1 17.8 13.1 64 4.0 E 17 20 9 11 1021.2 1019.4 0.0
27/08:00pm 20.8 17.3 13.3 62 4.3 E 24 33 13 18 1021.1 1019.3 0.0
27/07:30pm 21.0 17.9 13.4 62 4.4 E 22 30 12 16 1020.7 1019.0 0.0
27/07:00pm 21.2 18.5 13.4 61 4.5 E 20 24 11 13 1020.4 1018.7 0.0
27/06:30pm 21.9 18.1 13.5 59 4.9 ESE 26 35 14 19 1019.9 1018.2 0.0
27/06:00pm 22.4 17.3 13.2 56 5.4 ESE 32 43 17 23 1019.6 1017.9 0.0
27/05:30pm 23.5 18.2 13.1 52 6.1 ESE 33 44 18 24 1019.3 1017.5 0.0
27/05:00pm 25.1 20.0 13.0 47 7.1 ESE 32 41 17 22 1018.9 1017.1 0.0
27/04:30pm 25.0 20.6 12.9 47 7.1 ESE 28 39 15 21 1018.8 1017.0 0.0
27/04:00pm 25.1 21.0 12.7 46 7.3 E 26 33 14 18 1018.7 1016.9 0.0
27/03:30pm 24.8 20.4 13.0 47 6.9 E 28 32 15 17 1018.9 1017.1 0.0
27/03:00pm 24.8 20.8 13.0 47 6.9 E 26 35 14 19 1019.1 1017.3 0.0
27/02:30pm 25.0 20.9 12.6 46 7.3 E 26 35 14 19 1019.3 1017.5 0.0
27/02:00pm 25.2 21.0 12.4 45 7.5 E 26 33 14 18 1019.6 1017.9 0.0
27/01:30pm 25.7 21.8 12.2 43 7.9 ESE 24 33 13 18 1019.8 1018.1 0.0
27/01:00pm 26.3 22.6 12.7 43 8.0 ESE 24 35 13 19 1020.0 1018.3 0.0
27/12:30pm 25.3 21.5 12.5 45 7.5 ESE 24 33 13 18 1020.4 1018.7 0.0
27/12:00pm 25.1 21.8 12.7 46 7.3 ESE 22 30 12 16 1020.7 1019.0 0.0
27/11:30am 26.3 23.3 12.7 43 8.0 E 20 35 11 19 1021.0 1019.2 0.0
27/11:00am 25.9 21.6 12.0 42 8.1 E 26 39 14 21 1021.3 1019.5 0.0
27/10:41am 25.7 20.9 11.8 42 8.1 E 28 46 15 25 1021.4 1019.6 0.0
27/10:30am 25.8 21.1 11.9 42 8.1 E 28 39 15 21 1021.6 1019.8 0.0
27/10:00am 24.1 19.6 12.7 49 6.6 E 28 35 15 19 1021.8 1020.0 0.0
27/09:30am 23.4 19.0 13.0 52 6.1 E 28 39 15 21 1021.9 1020.1 0.0
27/09:00am 22.8 18.0 13.0 54 5.7 E 30 37 16 20 1021.8 1020.0 0.0
27/08:30am 22.3 17.3 13.4 57 5.2 E 32 39 17 21 1021.8 1020.0 0.0
27/08:00am 21.4 16.7 13.3 60 4.7 E 30 39 16 21 1021.5 1019.7 0.0
27/07:30am 20.1 17.1 13.6 66 3.8 ESE 22 30 12 16 1021.3 1019.5 0.0
27/07:00am 19.9 17.5 14.5 71 3.2 ESE 20 30 11 16 1020.8 1019.1 0.0
27/06:30am 18.9 17.3 15.0 78 2.3 E 17 20 9 11 1020.7 1019.0 0.0
27/06:00am 18.2 17.0 14.1 77 2.4 E 13 15 7 8 1020.8 1019.1 0.0
27/05:30am 19.3 17.6 14.8 75 2.7 ESE 17 24 9 13 1020.4 1018.7 0.0
27/05:00am 19.0 17.9 15.3 79 2.2 ESE 15 20 8 11 1019.9 1018.2 0.0
27/04:30am 17.7 16.0 14.6 82 1.8 ESE 17 20 9 11 1019.5 1017.8 0.0
27/04:00am 17.2 15.7 14.3 83 1.7 SE 15 19 8 10 1019.6 1017.9 0.0
27/03:30am 17.4 16.4 14.7 84 1.6 SE 13 17 7 9 1019.7 1018.0 0.0
27/03:00am 16.7 15.5 14.0 84 1.6 ESE 13 15 7 8 1019.6 1017.9 0.0
27/02:30am 17.2 17.0 13.5 79 2.1 E 7 11 4 6 1019.9 1018.2 0.0
27/02:00am 18.0 18.0 14.1 78 2.3 E 7 13 4 7 1020.1 1018.4 0.0
27/01:30am 18.5 16.8 14.6 78 2.3 ESE 17 20 9 11 1019.8 1018.1 0.0
27/01:00am 18.9 16.8 14.6 76 2.5 E 19 24 10 13 1019.8 1018.1 0.0
27/12:30am 19.4 17.3 14.6 74 2.8 E 19 24 10 13 1020.2 1018.5 0.0
27/12:00am 19.7 17.3 14.5 72 3.1 E 20 26 11 14 1020.0 1018.3 0.0
 
Date/Time
EST
Temp
°C
App
Temp
°C
Dew
Point
°C
Rel
Hum
%
Delta-T
°C
Wind Press
QNH
hPa
Press
MSL
hPa
Rain since
9am
mm
Dir  Spd
km/h
Gust
km/h
Spd
kts
Gust
kts
26/11:30pm 20.1 17.4 14.7 71 3.2 E 22 30 12 16 1020.0 1018.3 0.0
26/11:00pm 20.6 16.9 14.9 70 3.4 E 28 43 15 23 1019.9 1018.2 0.0
26/10:30pm 21.1 17.4 15.0 68 3.7 E 28 37 15 20 1019.9 1018.2 0.0
26/10:00pm 21.5 17.1 15.1 67 3.8 ENE 32 39 17 21 1020.3 1018.6 0.0
26/09:30pm 21.9 17.8 15.0 65 4.1 ENE 30 35 16 19 1020.3 1018.6 0.0
26/09:00pm 22.5 18.7 14.6 61 4.7 ENE 28 35 15 19 1020.1 1018.4 0.0
26/08:30pm 23.1 19.4 13.8 55 5.5 ENE 26 37 14 20 1019.9 1018.2 0.0
26/08:00pm 23.6 20.6 12.6 50 6.4 ENE 20 26 11 14 1019.6 1017.9 0.0

Other formats

Comma delimited format used in spreadsheet applications
http://www.bom.gov.au/fwo/IDQ60801/IDQ60801.94542.axf

JavaScript Object Notation format (JSON) in row-major order
http://www.bom.gov.au/fwo/IDQ60801/IDQ60801.94542.json

Data quality

Most of these data are generated automatically and are frequently updated. Quality checks on data are not normally performed. It is possible for incorrect values to appear. Refer to information at About Latest Weather Observations and please check the disclaimer before using these data.